Time;durP1;ratioP1;P1;durP2;ratioP2;P2;SDS_P1;SDS_P2;PMS_P1;PMS_P2;Temp;Humidity;BMP_temperature;BMP_pressure;BME280_temperature;BME280_humidity;BME280_pressure;Samples;Min_cycle;Max_cycle;Signal;HPM_P1;HPM_P2
2023/11/09 00:02:00;;;;;;;;;;;;;;;11.18;100.00;99832.84;5010596;28;1965;-64
2023/11/09 00:04:27;;;;;;;;;;;;;;;11.18;100.00;99832.03;5010508;28;812;-64
2023/11/09 00:06:54;;;;;;;;;;;;;;;11.09;100.00;99842.78;5011537;28;1193;-64
2023/11/09 00:09:22;;;;;;;;;;;;;;;11.05;100.00;99834.50;5011940;28;819;-64
2023/11/09 00:11:49;;;;;;;;;;;;;;;10.98;100.00;99840.88;5011737;28;935;-64
2023/11/09 00:14:16;;;;;;;;;;;;;;;10.90;100.00;99849.59;5011726;28;818;-65
2023/11/09 00:16:45;;;;;;;;;;;;;;;10.77;100.00;99844.53;5011662;28;952;-65
2023/11/09 00:19:13;;;;;;;;;;;;;;;10.65;100.00;99831.19;5011681;28;906;-64
2023/11/09 00:21:40;;;;;;;;;;;;;;;10.56;100.00;99830.81;5014325;28;1919;-65
2023/11/09 00:24:11;;;;;;;;;;;;;;;10.48;100.00;99834.81;5015418;28;828;-64
2023/11/09 00:26:48;;;;;;;;;;;;;;;10.47;100.00;99838.75;5015345;28;831;-65
2023/11/09 00:29:15;;;;;;;;;;;;;;;10.41;100.00;99825.38;5015404;28;843;-65
2023/11/09 00:31:42;;;;;;;;;;;;;;;10.48;100.00;99826.53;5015238;28;894;-66
2023/11/09 00:34:11;;;;;;;;;;;;;;;10.40;100.00;99832.06;5015103;28;986;-66
2023/11/09 00:36:38;;;;;;;;;;;;;;;10.36;100.00;99838.78;5015416;28;905;-66
2023/11/09 00:39:06;;;;;;;;;;;;;;;10.37;100.00;99852.22;5015144;28;964;-67
2023/11/09 00:41:33;;;;;;;;;;;;;;;10.28;100.00;99846.28;5015376;28;1894;-68
2023/11/09 00:44:00;;;;;;;;;;;;;;;10.18;100.00;99856.19;5015324;28;875;-67
2023/11/09 00:46:27;;;;;;;;;;;;;;;10.20;100.00;99873.16;5015181;28;862;-67
2023/11/09 00:48:53;;;;;;;;;;;;;;;10.13;100.00;99875.13;5015035;28;827;-67
2023/11/09 00:51:20;;;;;;;;;;;;;;;10.09;100.00;99868.81;5015025;28;795;-68
2023/11/09 00:53:46;;;;;;;;;;;;;;;10.04;100.00;99866.47;5015089;28;1168;-68
2023/11/09 00:56:14;;;;;;;;;;;;;;;9.96;100.00;99872.03;5015094;28;780;-70
2023/11/09 00:58:41;;;;;;;;;;;;;;;9.90;100.00;99876.34;5014921;28;811;-70
2023/11/09 01:01:07;;;;;;;;;;;;;;;9.81;100.00;99882.28;5015098;28;1293;-70
2023/11/09 01:03:34;;;;;;;;;;;;;;;9.78;100.00;99887.78;5014697;28;1941;-69
2023/11/09 01:06:04;;;;;;;;;;;;;;;9.59;100.00;99895.28;5014622;28;1324;-69
2023/11/09 01:08:31;;;;;;;;;;;;;;;9.45;100.00;99886.19;5014558;28;811;-69
2023/11/09 01:11:01;;;;;;;;;;;;;;;9.39;100.00;99886.59;5014561;28;844;-69
2023/11/09 01:13:28;;;;;;;;;;;;;;;9.24;100.00;99885.00;5014807;28;865;-69
2023/11/09 01:15:55;;;;;;;;;;;;;;;9.34;100.00;99895.25;5014409;28;827;-69
2023/11/09 01:18:21;;;;;;;;;;;;;;;9.25;100.00;99889.31;5014363;28;878;-69
2023/11/09 01:20:48;;;;;;;;;;;;;;;9.15;100.00;99899.19;5014242;28;861;-70
2023/11/09 01:23:14;;;;;;;;;;;;;;;9.06;100.00;99895.19;5014177;28;1923;-70
2023/11/09 01:25:41;;;;;;;;;;;;;;;8.96;100.00;99893.97;5014314;28;831;-69
2023/11/09 01:28:07;;;;;;;;;;;;;;;9.03;100.00;99873.94;5014124;28;910;-71
2023/11/09 01:30:34;;;;;;;;;;;;;;;9.20;100.00;99879.47;5014090;28;862;-70
2023/11/09 01:33:03;;;;;;;;;;;;;;;9.28;100.00;99885.00;5013809;28;1041;-71
2023/11/09 01:35:30;;;;;;;;;;;;;;;9.28;100.00;99880.28;5013981;28;874;-70
2023/11/09 01:37:57;;;;;;;;;;;;;;;9.38;100.00;99885.00;5014193;28;899;-71
2023/11/09 01:40:24;;;;;;;;;;;;;;;9.31;100.00;99876.72;5013897;28;842;-70
2023/11/09 01:42:51;;;;;;;;;;;;;;;9.25;100.00;99886.56;4996237;28;1951;-70
2023/11/09 01:45:18;;;;;;;;;;;;;;;9.11;100.00;99873.56;5013807;28;863;-70
2023/11/09 01:47:45;;;;;;;;;;;;;;;8.95;100.00;99884.13;5014023;28;889;-69
2023/11/09 01:50:11;;;;;;;;;;;;;;;8.70;100.00;99890.34;5013652;28;949;-70
2023/11/09 01:52:39;;;;;;;;;;;;;;;8.51;100.00;99894.22;5013767;28;943;-69
2023/11/09 01:55:06;;;;;;;;;;;;;;;8.41;100.00;99913.41;5013602;28;834;-70
2023/11/09 01:57:33;;;;;;;;;;;;;;;8.38;100.00;99907.50;5013553;28;894;-69
2023/11/09 02:00:00;;;;;;;;;;;;;;;8.43;100.00;99916.56;5013674;28;858;-69
2023/11/09 02:02:27;;;;;;;;;;;;;;;8.32;100.00;99917.28;5013701;28;1890;-68
2023/11/09 02:04:54;;;;;;;;;;;;;;;8.24;100.00;99931.41;5013690;28;981;-69
2023/11/09 02:07:21;;;;;;;;;;;;;;;8.23;100.00;99922.34;5013232;28;1079;-69
2023/11/09 02:09:50;;;;;;;;;;;;;;;8.20;100.00;99925.88;5013430;28;835;-69
2023/11/09 02:12:17;;;;;;;;;;;;;;;8.21;100.00;99930.19;5013284;28;893;-68
2023/11/09 02:14:45;;;;;;;;;;;;;;;8.17;100.00;99943.13;5013430;28;803;-68
2023/11/09 02:17:12;;;;;;;;;;;;;;;8.30;100.00;99944.44;5013449;28;854;-68
2023/11/09 02:19:38;;;;;;;;;;;;;;;8.36;100.00;99937.38;5013230;28;838;-68
2023/11/09 02:22:05;;;;;;;;;;;;;;;8.43;100.00;99953.19;5012965;28;1906;-67
2023/11/09 02:24:32;;;;;;;;;;;;;;;8.43;100.00;99966.16;5013278;28;929;-68
2023/11/09 02:27:01;;;;;;;;;;;;;;;8.37;100.00;99954.69;5013061;28;799;-67
2023/11/09 02:29:28;;;;;;;;;;;;;;;8.30;100.00;99949.13;5013049;28;873;-68
2023/11/09 02:31:57;;;;;;;;;;;;;;;8.34;100.00;99952.69;5013037;28;923;-66
2023/11/09 02:34:24;;;;;;;;;;;;;;;8.29;100.00;99956.59;5012883;28;930;-68
2023/11/09 02:36:52;;;;;;;;;;;;;;;8.30;100.00;99957.38;5012978;28;861;-66
2023/11/09 02:39:18;;;;;;;;;;;;;;;8.25;100.00;99963.25;5012816;28;934;-67
2023/11/09 02:41:45;;;;;;;;;;;;;;;8.08;100.00;99978.47;5012901;28;1939;-66
2023/11/09 02:44:12;;;;;;;;;;;;;;;7.95;100.00;99981.50;5011966;28;843;-66
2023/11/09 02:46:38;;;;;;;;;;;;;;;7.76;100.00;99982.53;5012760;28;890;-67
2023/11/09 02:49:05;;;;;;;;;;;;;;;7.63;100.00;99988.69;5012664;28;1012;-66
2023/11/09 02:51:34;;;;;;;;;;;;;;;7.45;100.00;99992.06;5012733;28;803;-66
2023/11/09 02:54:01;;;;;;;;;;;;;;;7.24;100.00;99997.31;5012568;28;844;-66
2023/11/09 02:56:27;;;;;;;;;;;;;;;7.02;100.00;100009.97;5012565;28;858;-66
2023/11/09 02:58:54;;;;;;;;;;;;;;;6.80;100.00;100008.91;5012572;28;905;-66
2023/11/09 03:01:20;;;;;;;;;;;;;;;6.64;100.00;100020.09;5012443;28;1001;-66
2023/11/09 03:03:51;;;;;;;;;;;;;;;6.58;100.00;100005.09;5012453;28;1948;-66
2023/11/09 03:06:19;;;;;;;;;;;;;;;6.48;100.00;100023.78;5012290;28;1273;-66
2023/11/09 03:08:46;;;;;;;;;;;;;;;6.37;100.00;100028.31;5012345;28;854;-66
2023/11/09 03:11:16;;;;;;;;;;;;;;;6.18;100.00;100031.13;4994784;28;922;-66
2023/11/09 03:13:44;;;;;;;;;;;;;;;6.15;100.00;100038.16;5012305;28;827;-66
2023/11/09 03:16:11;;;;;;;;;;;;;;;6.13;100.00;100032.25;5012179;28;795;-66
2023/11/09 03:18:38;;;;;;;;;;;;;;;6.14;100.00;100039.31;5012245;28;874;-66
2023/11/09 03:21:08;;;;;;;;;;;;;;;6.19;100.00;100039.00;5012049;28;890;-66
2023/11/09 03:23:35;;;;;;;;;;;;;;;6.25;100.00;100040.28;5012285;28;1935;-66
2023/11/09 03:26:02;;;;;;;;;;;;;;;6.21;100.00;100039.44;5012366;28;819;-66
2023/11/09 03:28:28;;;;;;;;;;;;;;;6.14;100.00;100047.53;5012326;28;788;-66
2023/11/09 03:30:55;;;;;;;;;;;;;;;6.02;100.00;100045.00;4994392;28;1274;-66
2023/11/09 03:33:21;;;;;;;;;;;;;;;5.75;100.00;100044.88;5012192;28;1903;-66
2023/11/09 03:35:48;;;;;;;;;;;;;;;5.52;100.00;100033.84;5012077;28;827;-66
2023/11/09 03:38:14;;;;;;;;;;;;;;;5.48;100.00;100028.31;5011982;28;886;-66
2023/11/09 03:40:41;;;;;;;;;;;;;;;5.79;100.00;100032.03;5012027;28;866;-66
2023/11/09 03:43:07;;;;;;;;;;;;;;;6.03;100.00;100036.38;5011978;28;893;-66
2023/11/09 03:45:34;;;;;;;;;;;;;;;6.23;100.00;100050.84;5011925;28;859;-66
2023/11/09 03:48:01;;;;;;;;;;;;;;;6.21;100.00;100047.69;5011880;28;882;-66
2023/11/09 03:50:28;;;;;;;;;;;;;;;6.09;100.00;100056.09;5011838;28;831;-66
2023/11/09 03:52:54;;;;;;;;;;;;;;;6.06;100.00;100049.38;5011801;28;1890;-66
2023/11/09 03:55:20;;;;;;;;;;;;;;;6.23;100.00;100041.78;5014490;28;826;-66
2023/11/09 03:57:47;;;;;;;;;;;;;;;6.56;100.00;100049.41;5015811;28;818;-66
2023/11/09 04:00:14;;;;;;;;;;;;;;;6.66;100.00;100046.03;5015771;28;843;-66
2023/11/09 04:02:42;;;;;;;;;;;;;;;6.71;100.00;100058.63;5015961;28;814;-66
2023/11/09 04:05:09;;;;;;;;;;;;;;;6.83;100.00;100055.69;5016006;28;894;-66
2023/11/09 04:07:38;;;;;;;;;;;;;;;6.98;100.00;100058.63;5015462;28;1169;-66
2023/11/09 04:10:06;;;;;;;;;;;;;;;7.09;100.00;100062.31;5015570;28;882;-66
2023/11/09 04:12:32;;;;;;;;;;;;;;;7.03;100.00;100052.81;5015498;28;1910;-66
2023/11/09 04:14:59;;;;;;;;;;;;;;;7.22;100.00;100054.63;5015431;28;912;-66
2023/11/09 04:17:26;;;;;;;;;;;;;;;7.33;100.00;100066.53;5015548;28;838;-65
2023/11/09 04:19:53;;;;;;;;;;;;;;;7.18;100.00;100070.28;5015569;28;862;-65
2023/11/09 04:22:19;;;;;;;;;;;;;;;6.91;100.00;100084.84;5015380;28;879;-65
2023/11/09 04:24:46;;;;;;;;;;;;;;;6.62;100.00;100100.09;5015506;28;835;-65
2023/11/09 04:27:13;;;;;;;;;;;;;;;6.48;100.00;100108.88;5015314;28;815;-65
2023/11/09 04:29:41;;;;;;;;;;;;;;;6.30;100.00;100107.81;5015216;28;888;-65
2023/11/09 04:32:08;;;;;;;;;;;;;;;6.16;100.00;100116.59;5015158;28;1886;-65
2023/11/09 04:34:36;;;;;;;;;;;;;;;6.18;100.00;100127.19;5015104;28;874;-65
2023/11/09 04:37:03;;;;;;;;;;;;;;;6.16;100.00;100124.81;4997429;28;1221;-65
2023/11/09 04:39:29;;;;;;;;;;;;;;;6.16;100.00;100135.78;5015110;28;839;-65
2023/11/09 04:41:58;;;;;;;;;;;;;;;6.20;100.00;100133.13;5015170;28;819;-66
2023/11/09 04:44:26;;;;;;;;;;;;;;;6.23;100.00;100148.84;5015762;28;913;-65
2023/11/09 04:46:55;;;;;;;;;;;;;;;6.25;100.00;100157.50;5015180;28;819;-65
2023/11/09 04:49:22;;;;;;;;;;;;;;;6.19;100.00;100158.97;5014887;28;783;-65
2023/11/09 04:51:51;;;;;;;;;;;;;;;6.32;100.00;100150.22;5014961;28;1958;-66
2023/11/09 04:54:24;;;;;;;;;;;;;;;6.15;100.00;100158.91;5014837;28;818;-65
2023/11/09 05:07:30;;;;;;;;;;;;;;;5.49;100.00;100171.69;5013698;28;1337;-65
2023/11/09 05:09:57;;;;;;;;;;;;;;;5.49;100.00;100172.47;5014440;28;874;-65
2023/11/09 05:12:24;;;;;;;;;;;;;;;5.53;100.00;100173.34;5014323;28;1965;-65
2023/11/09 05:14:51;;;;;;;;;;;;;;;5.51;100.00;100178.38;5014684;28;874;-65
2023/11/09 05:17:19;;;;;;;;;;;;;;;5.39;100.00;100178.50;5014169;28;834;-65
2023/11/09 05:19:48;;;;;;;;;;;;;;;5.40;100.00;100188.34;5014483;28;1300;-65
2023/11/09 05:22:15;;;;;;;;;;;;;;;5.80;100.00;100178.97;5014450;28;964;-65
2023/11/09 05:24:42;;;;;;;;;;;;;;;6.04;100.00;100188.91;5014540;28;929;-65
2023/11/09 05:27:10;;;;;;;;;;;;;;;6.35;100.00;100189.88;5014231;28;834;-65
2023/11/09 05:29:37;;;;;;;;;;;;;;;6.74;100.00;100196.06;5014232;28;803;-65
2023/11/09 05:32:11;;;;;;;;;;;;;;;7.09;100.00;100200.53;5014081;28;1945;-65
2023/11/09 05:34:38;;;;;;;;;;;;;;;7.35;100.00;100197.00;5013982;28;1068;-65
2023/11/09 05:37:05;;;;;;;;;;;;;;;7.61;100.00;100200.09;5014119;28;853;-65
2023/11/09 05:39:32;;;;;;;;;;;;;;;7.83;100.00;100209.41;5013892;28;831;-65
2023/11/09 05:41:59;;;;;;;;;;;;;;;7.89;100.00;100214.22;5013984;28;807;-64
2023/11/09 05:44:26;;;;;;;;;;;;;;;7.98;100.00;100209.22;5013877;28;879;-65
2023/11/09 05:46:54;;;;;;;;;;;;;;;8.07;100.00;100199.91;5013763;28;964;-64
2023/11/09 05:49:22;;;;;;;;;;;;;;;8.21;100.00;100196.50;4996536;28;1320;-64
2023/11/09 05:51:56;;;;;;;;;;;;;;;8.32;100.00;100198.22;5013834;28;1882;-64
2023/11/09 05:54:22;;;;;;;;;;;;;;;8.50;100.00;100201.16;5013892;28;812;-65
2023/11/09 05:56:49;;;;;;;;;;;;;;;8.62;100.00;100200.09;5013901;28;854;-64
2023/11/09 05:59:17;;;;;;;;;;;;;;;8.73;100.00;100201.00;5013646;28;811;-65
2023/11/09 06:01:44;;;;;;;;;;;;;;;8.87;100.00;100208.56;5013518;28;894;-64
2023/11/09 06:04:12;;;;;;;;;;;;;;;8.95;100.00;100206.69;5013553;28;838;-66
2023/11/09 06:06:38;;;;;;;;;;;;;;;9.11;100.00;100217.44;5013467;28;1431;-65
2023/11/09 06:09:06;;;;;;;;;;;;;;;9.15;100.00;100215.50;5013483;28;846;-65
2023/11/09 06:11:32;;;;;;;;;;;;;;;9.25;100.00;100203.75;5013220;28;1914;-66
2023/11/09 06:13:59;;;;;;;;;;;;;;;9.37;100.00;100202.66;4995764;28;1263;-65
2023/11/09 06:16:26;;;;;;;;;;;;;;;9.56;100.00;100224.47;5013170;28;890;-66
2023/11/09 06:18:56;;;;;;;;;;;;;;;9.70;100.00;100207.16;5013254;28;831;-65
2023/11/09 06:21:23;;;;;;;;;;;;;;;9.80;100.00;100216.69;5013419;28;1270;-65
2023/11/09 06:23:50;;;;;;;;;;;;;;;9.89;100.00;100202.53;5013367;28;831;-66
2023/11/09 06:26:22;;;;;;;;;;;;;;;9.92;100.00;100219.13;4995752;28;1182;-65
2023/11/09 06:28:51;;;;;;;;;;;;;;;10.02;100.00;100217.56;5013068;28;857;-66
2023/11/09 06:31:21;;;;;;;;;;;;;;;10.13;100.00;100218.38;5013045;28;885;-65
2023/11/09 06:33:48;;;;;;;;;;;;;;;10.31;100.00;100204.69;5012919;28;1882;-66
2023/11/09 06:36:16;;;;;;;;;;;;;;;10.33;100.00;100210.59;5012952;28;815;-65
2023/11/09 06:38:42;;;;;;;;;;;;;;;10.40;100.00;100215.34;5013023;28;811;-65
2023/11/09 06:41:09;;;;;;;;;;;;;;;10.46;100.00;100204.72;5012799;28;799;-65
2023/11/09 06:43:36;;;;;;;;;;;;;;;10.50;100.00;100206.31;5012918;28;874;-67
2023/11/09 06:46:03;;;;;;;;;;;;;;;10.58;100.00;100215.38;5012725;28;897;-65
2023/11/09 06:48:29;;;;;;;;;;;;;;;10.78;100.00;100224.91;5012752;28;822;-65
2023/11/09 06:50:56;;;;;;;;;;;;;;;10.92;100.00;100215.81;4995051;28;1371;-66
2023/11/09 06:53:22;;;;;;;;;;;;;;;11.04;100.00;100220.16;5012673;28;1956;-65
2023/11/09 06:55:48;;;;;;;;;;;;;;;11.23;100.00;100233.59;5012625;28;951;-64
2023/11/09 06:58:15;;;;;;;;;;;;;;;11.51;100.00;100222.88;5012684;28;883;-65
2023/11/09 07:00:41;;;;;;;;;;;;;;;11.87;100.00;100231.88;5012517;28;760;-65
2023/11/09 07:03:07;;;;;;;;;;;;;;;12.03;100.00;100221.19;5012496;28;804;-66
2023/11/09 07:05:34;;;;;;;;;;;;;;;11.91;100.00;100227.16;5012391;28;1002;-64
2023/11/09 07:08:01;;;;;;;;;;;;;;;11.83;100.00;100237.44;5012264;28;1269;-67
2023/11/09 07:10:28;;;;;;;;;;;;;;;11.72;100.00;100220.06;4994737;28;957;-66
2023/11/09 07:12:56;;;;;;;;;;;;;;;11.67;100.00;100230.75;5012497;28;1906;-66
2023/11/09 07:15:25;;;;;;;;;;;;;;;11.67;100.00;100237.09;5012237;28;859;-65
2023/11/09 07:17:53;;;;;;;;;;;;;;;11.79;100.00;100233.09;5012365;28;862;-66
2023/11/09 07:20:21;;;;;;;;;;;;;;;11.88;100.00;100229.91;5012206;28;843;-65
2023/11/09 07:22:51;;;;;;;;;;;;;;;11.96;100.00;100217.63;5012669;28;847;-65
2023/11/09 07:25:17;;;;;;;;;;;;;;;12.19;100.00;100219.91;5012075;28;887;-66
2023/11/09 07:27:44;;;;;;;;;;;;;;;12.07;100.00;100221.16;5012152;28;890;-66
2023/11/09 07:30:11;;;;;;;;;;;;;;;12.03;100.00;100217.59;5011688;28;819;-66
2023/11/09 07:32:37;;;;;;;;;;;;;;;12.08;100.00;100219.16;5012081;28;1906;-66
2023/11/09 07:35:05;;;;;;;;;;;;;;;11.99;100.00;100222.34;5012061;28;843;-68
2023/11/09 07:37:31;;;;;;;;;;;;;;;12.00;100.00;100224.75;5012086;28;902;-68
2023/11/09 07:39:58;;;;;;;;;;;;;;;12.09;100.00;100206.91;5012079;28;858;-66
2023/11/09 07:42:25;;;;;;;;;;;;;;;12.31;100.00;100219.47;5011984;28;885;-66
2023/11/09 07:44:52;;;;;;;;;;;;;;;12.24;100.00;100216.72;5012186;28;827;-66
2023/11/09 07:50:31;;;;;;;;;;;;;;;12.48;100.00;100228.06;5017902;28;688;-67
2023/11/09 07:52:58;;;;;;;;;;;;;;;12.54;100.00;100226.44;5031245;28;1961;-66
2023/11/09 07:55:25;;;;;;;;;;;;;;;12.82;100.00;100217.94;5031677;28;921;-67
2023/11/09 07:57:51;;;;;;;;;;;;;;;12.84;100.00;100237.75;5031645;28;882;-66
2023/11/09 08:00:20;;;;;;;;;;;;;;;13.01;100.00;100227.69;5031487;28;827;-67
2023/11/09 08:02:46;;;;;;;;;;;;;;;13.03;100.00;100227.28;5013961;28;1632;-67
2023/11/09 08:05:14;;;;;;;;;;;;;;;12.99;100.00;100243.16;5031566;28;925;-66
2023/11/09 08:07:41;;;;;;;;;;;;;;;13.03;100.00;100241.94;5030755;28;1250;-67
2023/11/09 08:10:09;;;;;;;;;;;;;;;13.22;100.00;100250.91;5013747;28;1396;-67
2023/11/09 08:12:37;;;;;;;;;;;;;;;13.21;100.00;100257.69;5031496;28;1968;-67
2023/11/09 08:15:10;;;;;;;;;;;;;;;13.20;100.00;100243.00;5031347;28;870;-67
2023/11/09 08:17:40;;;;;;;;;;;;;;;13.27;100.00;100258.78;5031509;28;882;-67
2023/11/09 08:20:07;;;;;;;;;;;;;;;13.31;100.00;100261.56;5031413;28;885;-67
2023/11/09 08:22:35;;;;;;;;;;;;;;;13.33;100.00;100253.63;5031375;28;771;-66
2023/11/09 08:25:06;;;;;;;;;;;;;;;13.31;100.00;100269.91;5031459;28;890;-67
2023/11/09 08:27:33;;;;;;;;;;;;;;;13.15;100.00;100270.41;5031382;28;831;-67
2023/11/09 08:29:59;;;;;;;;;;;;;;;13.22;100.00;100267.56;5013639;28;1243;-66
2023/11/09 08:32:25;;;;;;;;;;;;;;;13.33;100.00;100273.84;5031256;28;1867;-67
2023/11/09 08:34:53;;;;;;;;;;;;;;;13.36;100.00;100267.50;5031363;28;878;-66
2023/11/09 08:37:21;;;;;;;;;;;;;;;13.36;100.00;100261.16;5031212;28;929;-66
2023/11/09 08:39:48;;;;;;;;;;;;;;;13.39;100.00;100272.22;5031323;28;843;-68
2023/11/09 08:42:17;;;;;;;;;;;;;;;13.38;100.00;100280.97;5033558;28;847;-66
2023/11/09 08:44:44;;;;;;;;;;;;;;;13.57;100.00;100283.16;5034776;28;843;-67
2023/11/09 08:47:11;;;;;;;;;;;;;;;13.63;100.00;100281.53;5034806;28;863;-67
2023/11/09 08:49:38;;;;;;;;;;;;;;;13.48;100.00;100289.19;5034610;28;983;-67
2023/11/09 08:52:05;;;;;;;;;;;;;;;13.40;100.00;100287.69;5034689;28;1941;-67
2023/11/09 08:54:32;;;;;;;;;;;;;;;13.62;100.00;100285.50;5034576;28;870;-68
2023/11/09 08:56:59;;;;;;;;;;;;;;;13.54;100.00;100288.75;5034562;28;867;-68
2023/11/09 08:59:27;;;;;;;;;;;;;;;13.53;100.00;100290.75;5034543;28;807;-69
2023/11/09 09:01:53;;;;;;;;;;;;;;;13.57;100.00;100290.69;5034511;28;909;-67
2023/11/09 09:04:21;;;;;;;;;;;;;;;13.64;100.00;100291.41;5034528;28;858;-68
2023/11/09 09:06:54;;;;;;;;;;;;;;;13.71;100.00;100298.91;5034431;28;1361;-69
2023/11/09 09:09:22;;;;;;;;;;;;;;;13.57;100.00;100297.06;5016586;28;909;-69
2023/11/09 09:11:51;;;;;;;;;;;;;;;13.69;100.00;100304.84;5034419;28;1913;-70
2023/11/09 09:14:18;;;;;;;;;;;;;;;13.80;100.00;100279.75;5034349;28;962;-69
2023/11/09 09:16:45;;;;;;;;;;;;;;;13.68;98.49;100296.94;5034410;28;874;-69
2023/11/09 09:19:12;;;;;;;;;;;;;;;13.68;99.07;100294.16;5034440;28;850;-69
2023/11/09 09:21:38;;;;;;;;;;;;;;;13.72;97.95;100288.56;5034245;28;866;-69
2023/11/09 09:24:05;;;;;;;;;;;;;;;13.81;99.35;100286.88;5034376;28;803;-70
2023/11/09 09:26:33;;;;;;;;;;;;;;;14.08;96.13;100291.75;5034267;28;945;-73
2023/11/09 09:29:01;;;;;;;;;;;;;;;14.17;89.32;100288.50;5034199;28;880;-70
2023/11/09 09:31:29;;;;;;;;;;;;;;;14.25;89.68;100292.75;5034032;28;873;-71
2023/11/09 09:34:18;;;;;;;;;;;;;;;14.24;90.69;100283.63;5033952;28;1886;-70
2023/11/09 09:36:45;;;;;;;;;;;;;;;14.43;89.57;100275.84;5033606;28;1421;-71
2023/11/09 09:39:14;;;;;;;;;;;;;;;14.50;90.13;100303.56;5033873;28;829;-70
2023/11/09 09:41:50;;;;;;;;;;;;;;;14.65;90.37;100298.63;5033802;28;902;-71
2023/11/09 09:44:20;;;;;;;;;;;;;;;14.50;87.22;100289.66;5032418;28;1007;-71
2023/11/09 09:46:48;;;;;;;;;;;;;;;14.41;87.59;100292.16;5033774;28;842;-71
2023/11/09 09:49:14;;;;;;;;;;;;;;;14.55;86.82;100302.31;5033650;28;918;-71
2023/11/09 09:51:41;;;;;;;;;;;;;;;14.72;87.73;100303.28;5033344;28;1882;-70
2023/11/09 09:54:10;;;;;;;;;;;;;;;14.74;85.27;100304.44;5033425;28;799;-70
2023/11/09 09:56:47;;;;;;;;;;;;;;;14.75;87.77;100303.25;5015863;28;1296;-71
2023/11/09 09:59:14;;;;;;;;;;;;;;;14.84;84.15;100295.16;5033684;28;889;-70
2023/11/09 10:01:43;;;;;;;;;;;;;;;14.83;84.81;100299.16;5033395;28;807;-70
2023/11/09 10:04:11;;;;;;;;;;;;;;;14.99;86.54;100297.75;5033339;28;1218;-70
2023/11/09 10:06:38;;;;;;;;;;;;;;;15.13;83.06;100293.94;5033305;28;1210;-70
2023/11/09 10:09:07;;;;;;;;;;;;;;;15.08;84.24;100289.63;5033308;28;909;-70
2023/11/09 10:11:35;;;;;;;;;;;;;;;15.08;81.73;100298.81;5033248;28;893;-70
2023/11/09 10:14:02;;;;;;;;;;;;;;;15.03;82.77;100292.91;5032984;28;1913;-70
2023/11/09 10:16:32;;;;;;;;;;;;;;;14.98;71.06;100294.19;5015362;28;1250;-70
2023/11/09 10:31:28;;;;;;;;;;;;;;;15.53;67.14;100311.59;5028615;28;642;-69
2023/11/09 10:33:55;;;;;;;;;;;;;;;15.70;67.10;100304.13;5032971;28;1906;-70
2023/11/09 11:07:32;;;;;;;;;;;;;;;16.83;64.47;100316.25;5325790;22;1530;-69
2023/11/09 11:10:01;;;;;;;;;;;;;;;16.98;62.08;100315.94;5012524;28;912;-69
2023/11/09 11:12:29;;;;;;;;;;;;;;;17.06;67.60;100311.75;5012319;28;1987;-69
2023/11/09 11:14:57;;;;;;;;;;;;;;;17.23;67.46;100310.56;5012682;28;838;-69
2023/11/09 11:17:28;;;;;;;;;;;;;;;17.40;67.47;100311.34;5012339;28;869;-70
2023/11/09 11:20:12;;;;;;;;;;;;;;;17.54;62.64;100308.19;5012406;28;854;-69
2023/11/09 11:22:56;;;;;;;;;;;;;;;17.54;60.27;100315.78;5012205;28;947;-69
2023/11/09 11:25:38;;;;;;;;;;;;;;;17.41;58.84;100320.50;5012074;28;1077;-69
2023/11/09 11:28:05;;;;;;;;;;;;;;;17.51;61.51;100319.44;4994618;28;1233;-69
2023/11/09 11:33:36;;;;;;;;;;;;;;;17.77;60.46;100323.16;5012468;28;1914;-69
2023/11/09 11:36:03;;;;;;;;;;;;;;;17.93;63.42;100328.00;5012409;28;799;-69
2023/11/09 11:38:30;;;;;;;;;;;;;;;18.15;60.21;100336.56;5012362;28;1422;-69
2023/11/09 11:41:06;;;;;;;;;;;;;;;18.48;67.61;100328.06;5012455;28;906;-69
2023/11/09 11:43:39;;;;;;;;;;;;;;;19.10;67.63;100331.41;5012009;28;909;-69
2023/11/09 11:46:11;;;;;;;;;;;;;;;19.46;62.79;100332.25;5011991;28;908;-68
2023/11/09 11:48:42;;;;;;;;;;;;;;;19.50;60.50;100325.31;5012063;28;1186;-68
2023/11/09 11:51:10;;;;;;;;;;;;;;;19.40;60.73;100325.69;4994288;28;1499;-68
2023/11/09 11:53:40;;;;;;;;;;;;;;;19.52;62.50;100320.03;5012191;28;2246;-68
2023/11/09 11:56:20;;;;;;;;;;;;;;;19.89;66.79;100319.63;5011931;28;842;-65
2023/11/09 11:58:58;;;;;;;;;;;;;;;20.51;64.80;100313.38;5011980;28;830;-67
2023/11/09 12:01:27;;;;;;;;;;;;;;;20.00;51.92;100328.44;5011874;28;846;-69
2023/11/09 12:04:00;;;;;;;;;;;;;;;19.69;51.69;100337.47;5011854;28;986;-69
2023/11/09 12:06:29;;;;;;;;;;;;;;;19.50;51.49;100330.94;5010362;28;1388;-69
2023/11/09 12:08:58;;;;;;;;;;;;;;;19.58;51.86;100337.06;5012179;28;913;-68
2023/11/09 12:11:28;;;;;;;;;;;;;;;19.60;53.29;100337.41;5012322;28;862;-69
2023/11/09 12:13:58;;;;;;;;;;;;;;;19.77;56.29;100335.25;5011688;28;1910;-70
2023/11/09 12:16:25;;;;;;;;;;;;;;;19.85;56.03;100330.97;5014326;28;893;-70
2023/11/09 12:18:52;;;;;;;;;;;;;;;20.49;55.70;100322.25;5015488;28;811;-66
2023/11/09 12:21:23;;;;;;;;;;;;;;;20.82;54.18;100313.41;5015789;28;830;-66
2023/11/09 12:23:51;;;;;;;;;;;;;;;21.24;51.38;100327.00;5015698;28;903;-65
2023/11/09 12:26:28;;;;;;;;;;;;;;;21.32;48.38;100317.03;5015427;28;842;-65
2023/11/09 12:28:55;;;;;;;;;;;;;;;21.27;49.15;100320.44;5015551;28;1217;-65
2023/11/09 12:31:22;;;;;;;;;;;;;;;21.07;48.23;100323.66;5015496;28;882;-65
2023/11/09 12:34:00;;;;;;;;;;;;;;;21.04;49.40;100320.97;5015420;28;1886;-65
2023/11/09 12:36:27;;;;;;;;;;;;;;;21.19;49.95;100313.56;5015104;28;794;-65
2023/11/09 12:38:54;;;;;;;;;;;;;;;21.04;51.98;100313.34;5015541;28;854;-65
2023/11/09 12:41:39;;;;;;;;;;;;;;;20.84;55.61;100312.94;5015096;28;890;-65
2023/11/09 12:44:08;;;;;;;;;;;;;;;20.86;51.32;100316.06;5015054;28;873;-63
2023/11/09 12:46:36;;;;;;;;;;;;;;;20.82;52.18;100319.00;5014973;28;871;-63
2023/11/09 12:49:07;;;;;;;;;;;;;;;20.83;50.51;100314.97;5015028;28;897;-64
2023/11/09 12:51:38;;;;;;;;;;;;;;;20.45;48.64;100323.63;5014961;28;850;-64
2023/11/09 12:54:04;;;;;;;;;;;;;;;20.41;49.99;100323.75;5013853;28;1948;-63
2023/11/09 12:56:32;;;;;;;;;;;;;;;20.76;50.78;100315.22;5014890;28;854;-63
2023/11/09 12:58:59;;;;;;;;;;;;;;;20.87;49.38;100314.81;5015093;28;807;-63
2023/11/09 13:01:28;;;;;;;;;;;;;;;20.77;47.51;100320.41;5014819;28;841;-64
2023/11/09 13:03:56;;;;;;;;;;;;;;;20.56;47.98;100315.56;5014882;28;914;-65
2023/11/09 13:06:25;;;;;;;;;;;;;;;20.29;46.71;100319.00;5014662;28;1118;-64
2023/11/09 13:11:42;;;;;;;;;;;;;;;20.28;48.69;100321.00;5014963;28;625;-64
2023/11/09 13:14:16;;;;;;;;;;;;;;;20.30;45.95;100320.56;5014515;28;1910;-64
2023/11/09 13:16:46;;;;;;;;;;;;;;;20.30;48.39;100326.19;4996809;28;1280;-65
2023/11/09 13:19:24;;;;;;;;;;;;;;;20.52;47.67;100321.31;5014661;28;882;-65
2023/11/09 13:21:51;;;;;;;;;;;;;;;20.65;46.28;100320.50;5014671;28;870;-65
2023/11/09 13:24:28;;;;;;;;;;;;;;;20.57;46.20;100319.97;5014401;28;803;-68
2023/11/09 13:26:57;;;;;;;;;;;;;;;20.44;45.75;100319.25;5013649;28;881;-66
2023/11/09 13:29:24;;;;;;;;;;;;;;;20.19;44.98;100327.34;5014232;28;817;-66
2023/11/09 13:31:56;;;;;;;;;;;;;;;19.73;44.70;100326.94;5014097;28;1953;-66
2023/11/09 13:34:40;;;;;;;;;;;;;;;19.66;46.57;100324.38;5014007;28;842;-65
2023/11/09 13:37:07;;;;;;;;;;;;;;;19.29;46.65;100318.41;5014132;28;874;-65
2023/11/09 13:40:15;;;;;;;;;;;;;;;18.94;49.57;100321.09;5013943;28;902;-65
2023/11/09 13:42:34;;;;;;;;;;;;;;;18.73;49.84;100324.50;5013246;28;1140;-65
2023/11/09 13:45:06;;;;;;;;;;;;;;;18.49;56.22;100324.81;5013903;28;838;-65
2023/11/09 13:47:33;;;;;;;;;;;;;;;18.38;54.99;100324.34;5012573;28;1284;-65
2023/11/09 13:50:01;;;;;;;;;;;;;;;17.95;51.52;100328.34;5013887;28;834;-65
2023/11/09 13:52:38;;;;;;;;;;;;;;;17.57;55.95;100326.09;5013886;28;1894;-69
2023/11/09 13:55:44;;;;;;;;;;;;;;;17.44;60.86;100319.63;5013762;28;862;-69
2023/11/09 13:57:51;;;;;;;;;;;;;;;17.38;62.26;100318.59;5013495;28;1064;-67
2023/11/09 14:00:33;;;;;;;;;;;;;;;17.23;65.47;100330.09;5013703;28;878;-69
2023/11/09 14:03:01;;;;;;;;;;;;;;;16.93;64.97;100322.81;5013464;28;890;-66